sensor_id;sensor_type;location;lat;lon;timestamp;pressure;altitude;pressure_sealevel;temperature;humidity
27685;BME280;46113;50.130;8.526;2023-03-18T00:00:48;98596.44;;;4.53;72.08
27685;BME280;46113;50.130;8.526;2023-03-18T00:03:14;98597.28;;;4.53;71.73
27685;BME280;46113;50.130;8.526;2023-03-18T00:05:41;98599.19;;;4.50;72.69
27685;BME280;46113;50.130;8.526;2023-03-18T00:08:08;98607.50;;;4.60;72.28
27685;BME280;46113;50.130;8.526;2023-03-18T00:10:35;98598.09;;;4.56;72.00
27685;BME280;46113;50.130;8.526;2023-03-18T00:13:01;98599.50;;;4.63;71.79
27685;BME280;46113;50.130;8.526;2023-03-18T00:15:30;98606.50;;;4.62;71.43
27685;BME280;46113;50.130;8.526;2023-03-18T00:17:56;98612.53;;;4.64;71.45
27685;BME280;46113;50.130;8.526;2023-03-18T00:20:25;98608.69;;;4.52;72.24
27685;BME280;46113;50.130;8.526;2023-03-18T00:23:06;98611.84;;;4.61;72.11
27685;BME280;46113;50.130;8.526;2023-03-18T00:25:34;98616.88;;;4.65;72.30
27685;BME280;46113;50.130;8.526;2023-03-18T00:28:05;98620.41;;;4.64;71.99
27685;BME280;46113;50.130;8.526;2023-03-18T00:30:37;98627.28;;;4.67;72.17
27685;BME280;46113;50.130;8.526;2023-03-18T00:33:03;98629.56;;;4.75;71.68
27685;BME280;46113;50.130;8.526;2023-03-18T00:35:30;98624.06;;;4.81;71.73
27685;BME280;46113;50.130;8.526;2023-03-18T00:37:57;98626.16;;;4.52;72.03
27685;BME280;46113;50.130;8.526;2023-03-18T00:40:25;98624.78;;;4.64;71.93
27685;BME280;46113;50.130;8.526;2023-03-18T00:42:56;98624.66;;;4.67;71.66
27685;BME280;46113;50.130;8.526;2023-03-18T00:45:36;98625.31;;;4.72;71.35
27685;BME280;46113;50.130;8.526;2023-03-18T00:48:03;98628.75;;;4.73;71.39
27685;BME280;46113;50.130;8.526;2023-03-18T00:50:30;98633.34;;;4.67;71.95
27685;BME280;46113;50.130;8.526;2023-03-18T00:52:57;98627.94;;;4.72;72.33
27685;BME280;46113;50.130;8.526;2023-03-18T00:55:25;98633.88;;;4.76;71.94
27685;BME280;46113;50.130;8.526;2023-03-18T00:57:53;98628.69;;;4.74;72.22
27685;BME280;46113;50.130;8.526;2023-03-18T01:00:20;98621.44;;;4.81;71.98
27685;BME280;46113;50.130;8.526;2023-03-18T01:02:46;98625.72;;;4.63;72.73
27685;BME280;46113;50.130;8.526;2023-03-18T01:05:15;98619.38;;;4.69;73.29
27685;BME280;46113;50.130;8.526;2023-03-18T01:07:42;98615.94;;;4.66;72.98
27685;BME280;46113;50.130;8.526;2023-03-18T01:10:10;98613.06;;;4.52;73.74
27685;BME280;46113;50.130;8.526;2023-03-18T01:12:39;98610.56;;;4.70;72.57
27685;BME280;46113;50.130;8.526;2023-03-18T01:15:09;98611.41;;;4.70;72.71
27685;BME280;46113;50.130;8.526;2023-03-18T01:17:38;98622.72;;;4.51;73.28
27685;BME280;46113;50.130;8.526;2023-03-18T01:20:05;98619.09;;;4.54;73.38
27685;BME280;46113;50.130;8.526;2023-03-18T01:22:32;98614.25;;;4.65;72.65
27685;BME280;46113;50.130;8.526;2023-03-18T01:24:58;98613.44;;;4.22;73.51
27685;BME280;46113;50.130;8.526;2023-03-18T01:27:32;98618.63;;;4.44;72.93
27685;BME280;46113;50.130;8.526;2023-03-18T01:29:59;98624.13;;;4.38;73.13
27685;BME280;46113;50.130;8.526;2023-03-18T01:32:26;98616.66;;;4.49;72.55
27685;BME280;46113;50.130;8.526;2023-03-18T01:34:54;98625.91;;;4.58;72.86
27685;BME280;46113;50.130;8.526;2023-03-18T01:37:21;98637.88;;;4.43;73.02
27685;BME280;46113;50.130;8.526;2023-03-18T01:39:56;98635.25;;;4.64;72.64
27685;BME280;46113;50.130;8.526;2023-03-18T01:42:23;98647.03;;;4.74;72.83
27685;BME280;46113;50.130;8.526;2023-03-18T01:45:18;98656.75;;;4.72;73.23
27685;BME280;46113;50.130;8.526;2023-03-18T01:47:50;98651.94;;;4.82;72.86
27685;BME280;46113;50.130;8.526;2023-03-18T01:50:21;98653.13;;;4.96;71.78
27685;BME280;46113;50.130;8.526;2023-03-18T01:52:55;98657.41;;;4.57;74.28
27685;BME280;46113;50.130;8.526;2023-03-18T01:55:24;98644.09;;;4.82;73.62
27685;BME280;46113;50.130;8.526;2023-03-18T01:57:52;98640.25;;;4.91;72.26
27685;BME280;46113;50.130;8.526;2023-03-18T02:00:20;98644.91;;;4.84;73.09
27685;BME280;46113;50.130;8.526;2023-03-18T02:02:49;98650.25;;;4.81;72.75
27685;BME280;46113;50.130;8.526;2023-03-18T02:05:20;98653.06;;;4.97;71.88
27685;BME280;46113;50.130;8.526;2023-03-18T02:07:47;98656.81;;;4.71;73.33
27685;BME280;46113;50.130;8.526;2023-03-18T02:10:26;98651.63;;;4.69;73.38
27685;BME280;46113;50.130;8.526;2023-03-18T02:12:58;98646.34;;;4.71;73.87
27685;BME280;46113;50.130;8.526;2023-03-18T02:15:33;98653.81;;;4.80;73.32
27685;BME280;46113;50.130;8.526;2023-03-18T02:18:29;98648.50;;;4.82;73.71
27685;BME280;46113;50.130;8.526;2023-03-18T02:26:48;98650.53;;;4.75;72.57
27685;BME280;46113;50.130;8.526;2023-03-18T02:29:22;98647.13;;;4.93;72.77
27685;BME280;46113;50.130;8.526;2023-03-18T02:32:00;98641.03;;;5.12;72.15
27685;BME280;46113;50.130;8.526;2023-03-18T02:34:28;98639.91;;;4.99;72.02
27685;BME280;46113;50.130;8.526;2023-03-18T02:36:56;98643.81;;;5.09;71.75
27685;BME280;46113;50.130;8.526;2023-03-18T02:39:23;98634.78;;;5.15;71.28
27685;BME280;46113;50.130;8.526;2023-03-18T02:41:52;98646.72;;;5.22;71.68
27685;BME280;46113;50.130;8.526;2023-03-18T02:44:19;98643.09;;;5.25;71.57
27685;BME280;46113;50.130;8.526;2023-03-18T02:47:16;98649.47;;;5.19;71.42
27685;BME280;46113;50.130;8.526;2023-03-18T02:49:44;98655.28;;;5.26;71.56
27685;BME280;46113;50.130;8.526;2023-03-18T02:52:12;98661.19;;;5.31;71.36
27685;BME280;46113;50.130;8.526;2023-03-18T02:54:39;98664.63;;;5.12;71.99
27685;BME280;46113;50.130;8.526;2023-03-18T02:57:06;98666.78;;;5.23;71.02
27685;BME280;46113;50.130;8.526;2023-03-18T02:59:33;98663.03;;;5.29;70.78
27685;BME280;46113;50.130;8.526;2023-03-18T03:01:59;98667.97;;;5.16;71.41
27685;BME280;46113;50.130;8.526;2023-03-18T03:04:27;98657.97;;;5.24;71.33
27685;BME280;46113;50.130;8.526;2023-03-18T03:06:55;98664.09;;;5.25;71.10
27685;BME280;46113;50.130;8.526;2023-03-18T03:09:35;98658.50;;;5.32;70.76
27685;BME280;46113;50.130;8.526;2023-03-18T03:12:03;98660.41;;;5.29;69.89
27685;BME280;46113;50.130;8.526;2023-03-18T03:14:30;98653.53;;;5.26;70.85
27685;BME280;46113;50.130;8.526;2023-03-18T03:16:59;98655.06;;;5.30;70.82
27685;BME280;46113;50.130;8.526;2023-03-18T03:19:26;98655.56;;;5.19;71.61
27685;BME280;46113;50.130;8.526;2023-03-18T03:21:54;98659.88;;;5.01;72.46
27685;BME280;46113;50.130;8.526;2023-03-18T03:24:22;98661.47;;;5.25;71.27
27685;BME280;46113;50.130;8.526;2023-03-18T03:26:49;98667.13;;;5.15;71.91
27685;BME280;46113;50.130;8.526;2023-03-18T03:29:15;98660.59;;;5.05;72.78
27685;BME280;46113;50.130;8.526;2023-03-18T03:31:42;98670.31;;;5.22;71.71
27685;BME280;46113;50.130;8.526;2023-03-18T03:34:08;98661.66;;;5.20;71.96
27685;BME280;46113;50.130;8.526;2023-03-18T03:36:36;98666.38;;;5.32;71.56
27685;BME280;46113;50.130;8.526;2023-03-18T03:39:02;98672.03;;;5.23;71.36
27685;BME280;46113;50.130;8.526;2023-03-18T03:41:33;98668.81;;;5.36;71.04
27685;BME280;46113;50.130;8.526;2023-03-18T03:43:59;98671.84;;;5.07;71.84
27685;BME280;46113;50.130;8.526;2023-03-18T03:46:26;98664.72;;;5.30;71.38
27685;BME280;46113;50.130;8.526;2023-03-18T03:48:53;98659.84;;;5.22;72.15
27685;BME280;46113;50.130;8.526;2023-03-18T03:51:20;98659.41;;;5.31;71.31
27685;BME280;46113;50.130;8.526;2023-03-18T03:53:47;98657.56;;;5.33;71.36
27685;BME280;46113;50.130;8.526;2023-03-18T03:56:14;98661.25;;;5.29;72.12
27685;BME280;46113;50.130;8.526;2023-03-18T03:58:41;98657.91;;;5.26;72.06
27685;BME280;46113;50.130;8.526;2023-03-18T04:01:07;98662.31;;;5.25;71.75
27685;BME280;46113;50.130;8.526;2023-03-18T04:03:34;98656.06;;;5.28;71.94
27685;BME280;46113;50.130;8.526;2023-03-18T04:06:04;98665.66;;;5.29;71.52
27685;BME280;46113;50.130;8.526;2023-03-18T04:08:33;98667.63;;;5.24;71.73
27685;BME280;46113;50.130;8.526;2023-03-18T04:11:00;98672.59;;;5.30;71.65
27685;BME280;46113;50.130;8.526;2023-03-18T04:13:30;98676.84;;;5.32;71.66
27685;BME280;46113;50.130;8.526;2023-03-18T04:15:56;98674.50;;;4.86;74.09
27685;BME280;46113;50.130;8.526;2023-03-18T04:18:23;98660.31;;;5.11;73.44
27685;BME280;46113;50.130;8.526;2023-03-18T04:20:49;98663.22;;;5.05;73.33
27685;BME280;46113;50.130;8.526;2023-03-18T04:23:33;98653.84;;;5.18;72.97
27685;BME280;46113;50.130;8.526;2023-03-18T04:26:00;98664.50;;;5.15;72.67
27685;BME280;46113;50.130;8.526;2023-03-18T04:28:27;98659.25;;;5.15;72.44
27685;BME280;46113;50.130;8.526;2023-03-18T04:30:53;98664.53;;;4.95;74.09
27685;BME280;46113;50.130;8.526;2023-03-18T04:33:20;98664.59;;;4.93;74.51
27685;BME280;46113;50.130;8.526;2023-03-18T04:35:48;98661.78;;;4.77;75.39
27685;BME280;46113;50.130;8.526;2023-03-18T04:38:17;98670.56;;;4.97;74.36
27685;BME280;46113;50.130;8.526;2023-03-18T04:40:44;98671.00;;;5.06;73.85
27685;BME280;46113;50.130;8.526;2023-03-18T04:43:11;98673.72;;;5.24;72.90
27685;BME280;46113;50.130;8.526;2023-03-18T04:45:38;98673.78;;;5.23;72.88
27685;BME280;46113;50.130;8.526;2023-03-18T04:48:05;98675.69;;;5.19;73.60
27685;BME280;46113;50.130;8.526;2023-03-18T04:50:39;98685.66;;;5.31;72.76
27685;BME280;46113;50.130;8.526;2023-03-18T04:53:10;98688.97;;;5.35;73.13
27685;BME280;46113;50.130;8.526;2023-03-18T04:55:37;98683.78;;;5.33;72.75
27685;BME280;46113;50.130;8.526;2023-03-18T04:58:06;98688.34;;;5.30;72.61
27685;BME280;46113;50.130;8.526;2023-03-18T05:00:38;98680.00;;;5.20;72.95
27685;BME280;46113;50.130;8.526;2023-03-18T05:03:17;98678.53;;;5.14;72.52
27685;BME280;46113;50.130;8.526;2023-03-18T05:05:44;98664.22;;;4.82;73.88
27685;BME280;46113;50.130;8.526;2023-03-18T05:08:13;98677.66;;;4.95;73.96
27685;BME280;46113;50.130;8.526;2023-03-18T05:10:41;98682.63;;;5.01;73.77
27685;BME280;46113;50.130;8.526;2023-03-18T05:13:11;98693.03;;;5.02;74.07
27685;BME280;46113;50.130;8.526;2023-03-18T05:15:38;98695.38;;;5.09;73.42
27685;BME280;46113;50.130;8.526;2023-03-18T05:18:05;98704.59;;;5.17;73.38
27685;BME280;46113;50.130;8.526;2023-03-18T05:20:32;98705.16;;;5.05;73.30
27685;BME280;46113;50.130;8.526;2023-03-18T05:23:01;98710.09;;;4.50;75.74
27685;BME280;46113;50.130;8.526;2023-03-18T05:25:47;98708.53;;;4.24;77.53
27685;BME280;46113;50.130;8.526;2023-03-18T05:28:15;98703.13;;;4.70;75.45
27685;BME280;46113;50.130;8.526;2023-03-18T05:30:49;98707.09;;;4.37;76.85
27685;BME280;46113;50.130;8.526;2023-03-18T05:33:17;98704.75;;;4.52;76.29
27685;BME280;46113;50.130;8.526;2023-03-18T05:35:52;98701.41;;;4.48;75.67
27685;BME280;46113;50.130;8.526;2023-03-18T05:38:23;98704.63;;;4.55;75.52
27685;BME280;46113;50.130;8.526;2023-03-18T05:40:50;98704.69;;;4.53;75.60
27685;BME280;46113;50.130;8.526;2023-03-18T05:43:22;98698.28;;;4.61;75.64
27685;BME280;46113;50.130;8.526;2023-03-18T05:45:53;98700.78;;;4.64;75.49
27685;BME280;46113;50.130;8.526;2023-03-18T05:48:29;98706.72;;;4.67;75.71
27685;BME280;46113;50.130;8.526;2023-03-18T05:51:02;98699.66;;;4.70;75.67
27685;BME280;46113;50.130;8.526;2023-03-18T05:53:30;98705.88;;;4.88;75.29
27685;BME280;46113;50.130;8.526;2023-03-18T05:56:07;98702.16;;;4.93;74.67
27685;BME280;46113;50.130;8.526;2023-03-18T05:58:34;98708.19;;;4.96;74.89
27685;BME280;46113;50.130;8.526;2023-03-18T06:01:23;98717.63;;;5.00;75.13
27685;BME280;46113;50.130;8.526;2023-03-18T06:03:53;98710.47;;;5.03;75.22
27685;BME280;46113;50.130;8.526;2023-03-18T06:06:20;98713.22;;;5.00;75.40
27685;BME280;46113;50.130;8.526;2023-03-18T06:08:47;98719.66;;;4.72;76.59
27685;BME280;46113;50.130;8.526;2023-03-18T06:11:14;98710.53;;;4.60;77.12
27685;BME280;46113;50.130;8.526;2023-03-18T06:13:41;98710.88;;;4.73;76.63
27685;BME280;46113;50.130;8.526;2023-03-18T06:16:08;98720.09;;;4.82;76.14
27685;BME280;46113;50.130;8.526;2023-03-18T06:18:37;98710.16;;;4.70;77.05
27685;BME280;46113;50.130;8.526;2023-03-18T06:21:04;98716.44;;;4.86;76.54
27685;BME280;46113;50.130;8.526;2023-03-18T06:23:35;98711.84;;;4.91;76.49
27685;BME280;46113;50.130;8.526;2023-03-18T06:26:03;98717.22;;;4.67;79.04
27685;BME280;46113;50.130;8.526;2023-03-18T06:28:34;98720.50;;;5.14;77.17
27685;BME280;46113;50.130;8.526;2023-03-18T06:31:07;98728.72;;;5.26;76.96
27685;BME280;46113;50.130;8.526;2023-03-18T06:33:34;98734.34;;;5.37;76.48
27685;BME280;46113;50.130;8.526;2023-03-18T06:36:01;98733.91;;;5.27;76.54
27685;BME280;46113;50.130;8.526;2023-03-18T06:38:28;98730.06;;;4.95;78.50
27685;BME280;46113;50.130;8.526;2023-03-18T06:40:58;98729.06;;;5.18;77.42
27685;BME280;46113;50.130;8.526;2023-03-18T06:43:25;98734.34;;;5.37;76.15
27685;BME280;46113;50.130;8.526;2023-03-18T06:45:52;98731.41;;;5.45;76.25
27685;BME280;46113;50.130;8.526;2023-03-18T06:48:19;98740.72;;;5.52;75.99
27685;BME280;46113;50.130;8.526;2023-03-18T06:50:47;98736.47;;;5.69;76.26
27685;BME280;46113;50.130;8.526;2023-03-18T06:53:21;98732.47;;;5.98;75.44
27685;BME280;46113;50.130;8.526;2023-03-18T06:55:48;98743.28;;;5.92;75.17
27685;BME280;46113;50.130;8.526;2023-03-18T06:58:18;98746.50;;;6.17;74.06
27685;BME280;46113;50.130;8.526;2023-03-18T07:00:55;98742.31;;;6.32;72.32
27685;BME280;46113;50.130;8.526;2023-03-18T07:03:25;98751.91;;;5.94;73.92
27685;BME280;46113;50.130;8.526;2023-03-18T07:05:53;98749.56;;;6.44;72.27
27685;BME280;46113;50.130;8.526;2023-03-18T07:08:21;98748.00;;;6.59;71.49
27685;BME280;46113;50.130;8.526;2023-03-18T07:10:50;98749.16;;;6.71;70.97
27685;BME280;46113;50.130;8.526;2023-03-18T07:13:18;98744.97;;;6.85;70.45
27685;BME280;46113;50.130;8.526;2023-03-18T07:15:46;98751.69;;;7.08;69.84
27685;BME280;46113;50.130;8.526;2023-03-18T07:18:13;98748.06;;;7.11;69.46
27685;BME280;46113;50.130;8.526;2023-03-18T07:20:40;98756.50;;;7.17;69.25
27685;BME280;46113;50.130;8.526;2023-03-18T07:23:07;98758.44;;;7.14;69.10
27685;BME280;46113;50.130;8.526;2023-03-18T07:25:35;98753.78;;;7.01;68.98
27685;BME280;46113;50.130;8.526;2023-03-18T07:28:02;98762.16;;;7.10;69.51
27685;BME280;46113;50.130;8.526;2023-03-18T07:30:30;98765.06;;;7.21;69.70
27685;BME280;46113;50.130;8.526;2023-03-18T07:32:57;98759.25;;;7.32;68.94
27685;BME280;46113;50.130;8.526;2023-03-18T07:35:25;98758.84;;;7.40;69.38
27685;BME280;46113;50.130;8.526;2023-03-18T07:37:52;98757.88;;;7.58;68.40
27685;BME280;46113;50.130;8.526;2023-03-18T07:40:18;98760.44;;;7.76;68.94
27685;BME280;46113;50.130;8.526;2023-03-18T07:42:46;98764.56;;;7.48;69.16
27685;BME280;46113;50.130;8.526;2023-03-18T07:45:13;98760.25;;;7.63;68.74
27685;BME280;46113;50.130;8.526;2023-03-18T07:47:40;98771.75;;;7.28;69.79
27685;BME280;46113;50.130;8.526;2023-03-18T07:50:08;98768.34;;;7.76;68.04
27685;BME280;46113;50.130;8.526;2023-03-18T07:52:35;98765.75;;;7.92;67.73
27685;BME280;46113;50.130;8.526;2023-03-18T07:55:03;98759.53;;;7.93;66.81
27685;BME280;46113;50.130;8.526;2023-03-18T07:57:30;98759.69;;;7.74;67.30
27685;BME280;46113;50.130;8.526;2023-03-18T07:59:56;98766.75;;;7.90;66.96
27685;BME280;46113;50.130;8.526;2023-03-18T08:02:23;98755.31;;;8.07;66.72
27685;BME280;46113;50.130;8.526;2023-03-18T08:04:50;98757.34;;;8.18;66.68
27685;BME280;46113;50.130;8.526;2023-03-18T08:07:18;98756.72;;;8.45;66.26
27685;BME280;46113;50.130;8.526;2023-03-18T08:09:45;98763.19;;;8.55;67.27
27685;BME280;46113;50.130;8.526;2023-03-18T08:12:12;98769.31;;;8.23;68.63
27685;BME280;46113;50.130;8.526;2023-03-18T08:14:45;98771.06;;;8.71;66.14
27685;BME280;46113;50.130;8.526;2023-03-18T08:17:12;98770.22;;;8.55;65.84
27685;BME280;46113;50.130;8.526;2023-03-18T08:19:38;98771.19;;;8.21;67.39
27685;BME280;46113;50.130;8.526;2023-03-18T08:22:05;98761.88;;;8.93;65.70
27685;BME280;46113;50.130;8.526;2023-03-18T08:24:32;98762.44;;;8.84;65.49
27685;BME280;46113;50.130;8.526;2023-03-18T08:26:59;98759.69;;;9.30;64.17
27685;BME280;46113;50.130;8.526;2023-03-18T08:29:27;98764.31;;;9.41;63.58
27685;BME280;46113;50.130;8.526;2023-03-18T08:31:53;98758.75;;;9.46;63.31
27685;BME280;46113;50.130;8.526;2023-03-18T08:34:20;98753.47;;;8.86;64.97
27685;BME280;46113;50.130;8.526;2023-03-18T08:36:47;98769.94;;;9.21;64.20
27685;BME280;46113;50.130;8.526;2023-03-18T08:39:14;98765.28;;;8.95;64.26
27685;BME280;46113;50.130;8.526;2023-03-18T08:41:41;98769.47;;;8.53;65.93
27685;BME280;46113;50.130;8.526;2023-03-18T08:44:11;98781.47;;;8.42;67.12
27685;BME280;46113;50.130;8.526;2023-03-18T08:46:37;98774.16;;;8.31;66.71
27685;BME280;46113;50.130;8.526;2023-03-18T08:49:05;98782.22;;;8.44;66.52
27685;BME280;46113;50.130;8.526;2023-03-18T08:51:32;98778.56;;;8.63;66.05
27685;BME280;46113;50.130;8.526;2023-03-18T08:53:59;98768.88;;;8.63;66.18
27685;BME280;46113;50.130;8.526;2023-03-18T08:56:26;98775.63;;;8.53;66.78
27685;BME280;46113;50.130;8.526;2023-03-18T08:58:53;98768.75;;;8.65;65.54
27685;BME280;46113;50.130;8.526;2023-03-18T09:01:19;98764.19;;;8.83;65.03
27685;BME280;46113;50.130;8.526;2023-03-18T09:03:48;98775.78;;;8.50;64.86
27685;BME280;46113;50.130;8.526;2023-03-18T09:06:16;98775.41;;;8.40;65.26
27685;BME280;46113;50.130;8.526;2023-03-18T09:08:43;98778.16;;;8.39;64.84
27685;BME280;46113;50.130;8.526;2023-03-18T09:11:10;98771.38;;;8.81;62.96
27685;BME280;46113;50.130;8.526;2023-03-18T09:13:36;98768.97;;;8.62;64.29
27685;BME280;46113;50.130;8.526;2023-03-18T09:16:04;98770.88;;;8.74;63.38
27685;BME280;46113;50.130;8.526;2023-03-18T09:18:32;98776.03;;;8.92;62.64
27685;BME280;46113;50.130;8.526;2023-03-18T09:21:01;98772.41;;;9.09;62.63
27685;BME280;46113;50.130;8.526;2023-03-18T09:23:28;98772.31;;;9.25;60.36
27685;BME280;46113;50.130;8.526;2023-03-18T09:25:55;98769.88;;;9.37;59.58
27685;BME280;46113;50.130;8.526;2023-03-18T09:28:22;98769.41;;;9.59;59.61
27685;BME280;46113;50.130;8.526;2023-03-18T09:30:49;98781.50;;;9.78;60.33
27685;BME280;46113;50.130;8.526;2023-03-18T09:33:16;98773.38;;;9.66;59.55
27685;BME280;46113;50.130;8.526;2023-03-18T09:35:43;98780.19;;;9.85;57.11
27685;BME280;46113;50.130;8.526;2023-03-18T09:38:14;98782.53;;;10.32;58.77
27685;BME280;46113;50.130;8.526;2023-03-18T09:49:33;98778.16;;;10.86;56.23
27685;BME280;46113;50.130;8.526;2023-03-18T09:55:00;98773.47;;;11.04;49.52
27685;BME280;46113;50.130;8.526;2023-03-18T09:57:32;98771.47;;;10.67;50.08
27685;BME280;46113;50.130;8.526;2023-03-18T10:00:05;98768.56;;;10.98;48.09
27685;BME280;46113;50.130;8.526;2023-03-18T10:02:39;98776.25;;;11.28;47.76
27685;BME280;46113;50.130;8.526;2023-03-18T10:05:17;98765.97;;;11.63;47.63
27685;BME280;46113;50.130;8.526;2023-03-18T10:07:46;98762.34;;;11.77;47.35
27685;BME280;46113;50.130;8.526;2023-03-18T10:10:23;98766.28;;;11.45;48.82
27685;BME280;46113;50.130;8.526;2023-03-18T10:13:04;98767.94;;;11.85;49.37
27685;BME280;46113;50.130;8.526;2023-03-18T10:15:39;98766.69;;;12.28;47.70
27685;BME280;46113;50.130;8.526;2023-03-18T10:18:23;98761.84;;;11.96;46.55
27685;BME280;46113;50.130;8.526;2023-03-18T10:26:40;98759.63;;;11.39;45.75
27685;BME280;46113;50.130;8.526;2023-03-18T10:32:01;98753.03;;;11.45;46.57
27685;BME280;46113;50.130;8.526;2023-03-18T10:34:40;98752.19;;;11.32;47.79
27685;BME280;46113;50.130;8.526;2023-03-18T10:37:30;98748.78;;;11.68;47.73
27685;BME280;46113;50.130;8.526;2023-03-18T10:40:01;98753.97;;;11.57;46.64
27685;BME280;46113;50.130;8.526;2023-03-18T10:42:30;98747.00;;;11.56;46.73
27685;BME280;46113;50.130;8.526;2023-03-18T10:45:08;98752.28;;;11.56;46.03
27685;BME280;46113;50.130;8.526;2023-03-18T10:47:44;98756.13;;;11.39;47.03
27685;BME280;46113;50.130;8.526;2023-03-18T10:50:20;98754.16;;;11.67;46.28
27685;BME280;46113;50.130;8.526;2023-03-18T10:53:01;98747.41;;;11.76;46.61
27685;BME280;46113;50.130;8.526;2023-03-18T10:55:35;98749.63;;;11.69;46.23
27685;BME280;46113;50.130;8.526;2023-03-18T10:58:14;98749.56;;;11.45;45.65
27685;BME280;46113;50.130;8.526;2023-03-18T11:00:41;98742.16;;;11.87;47.26
27685;BME280;46113;50.130;8.526;2023-03-18T11:11:56;98736.91;;;11.74;45.44
27685;BME280;46113;50.130;8.526;2023-03-18T11:14:33;98734.28;;;11.61;45.45
27685;BME280;46113;50.130;8.526;2023-03-18T11:17:05;98740.38;;;11.88;45.07
27685;BME280;46113;50.130;8.526;2023-03-18T11:19:48;98742.88;;;11.89;45.73
27685;BME280;46113;50.130;8.526;2023-03-18T11:22:22;98739.31;;;12.28;43.99
27685;BME280;46113;50.130;8.526;2023-03-18T11:27:40;98738.41;;;12.16;44.08
27685;BME280;46113;50.130;8.526;2023-03-18T11:30:22;98735.38;;;12.33;44.95
27685;BME280;46113;50.130;8.526;2023-03-18T11:35:43;98733.66;;;12.32;45.53
27685;BME280;46113;50.130;8.526;2023-03-18T11:38:32;98733.78;;;12.31;43.45
27685;BME280;46113;50.130;8.526;2023-03-18T11:41:14;98727.41;;;12.33;43.34
27685;BME280;46113;50.130;8.526;2023-03-18T11:44:03;98728.13;;;12.36;43.80
27685;BME280;46113;50.130;8.526;2023-03-18T11:46:39;98718.13;;;12.64;43.78
27685;BME280;46113;50.130;8.526;2023-03-18T11:49:13;98717.81;;;12.44;45.15
27685;BME280;46113;50.130;8.526;2023-03-18T11:54:27;98710.59;;;12.57;44.48
27685;BME280;46113;50.130;8.526;2023-03-18T11:57:10;98710.88;;;12.66;43.69
27685;BME280;46113;50.130;8.526;2023-03-18T11:59:50;98720.88;;;12.62;43.58
27685;BME280;46113;50.130;8.526;2023-03-18T12:10:48;98708.78;;;12.46;45.00
27685;BME280;46113;50.130;8.526;2023-03-18T12:21:03;98701.41;;;12.86;43.39
27685;BME280;46113;50.130;8.526;2023-03-18T12:24:35;98700.09;;;13.03;44.64
27685;BME280;46113;50.130;8.526;2023-03-18T12:27:22;98702.72;;;12.80;46.66
27685;BME280;46113;50.130;8.526;2023-03-18T12:30:06;98707.50;;;13.11;44.51
27685;BME280;46113;50.130;8.526;2023-03-18T12:32:40;98692.72;;;12.95;43.96
27685;BME280;46113;50.130;8.526;2023-03-18T12:35:15;98700.16;;;13.26;43.66
27685;BME280;46113;50.130;8.526;2023-03-18T12:40:36;98701.25;;;13.46;42.97
27685;BME280;46113;50.130;8.526;2023-03-18T12:45:59;98704.00;;;13.68;44.32
27685;BME280;46113;50.130;8.526;2023-03-18T12:48:32;98695.19;;;13.78;43.47
27685;BME280;46113;50.130;8.526;2023-03-18T12:51:21;98696.28;;;13.64;43.42
27685;BME280;46113;50.130;8.526;2023-03-18T12:54:05;98698.69;;;13.68;42.44
27685;BME280;46113;50.130;8.526;2023-03-18T12:56:42;98686.34;;;13.89;42.41
27685;BME280;46113;50.130;8.526;2023-03-18T12:59:18;98687.78;;;13.94;42.85
27685;BME280;46113;50.130;8.526;2023-03-18T13:02:01;98679.31;;;14.11;42.02
27685;BME280;46113;50.130;8.526;2023-03-18T13:04:35;98683.59;;;14.24;41.57
27685;BME280;46113;50.130;8.526;2023-03-18T13:07:11;98680.22;;;14.54;42.07
27685;BME280;46113;50.130;8.526;2023-03-18T13:10:11;98673.78;;;14.57;41.01
27685;BME280;46113;50.130;8.526;2023-03-18T13:12:42;98680.91;;;14.35;40.70
27685;BME280;46113;50.130;8.526;2023-03-18T13:18:33;98673.44;;;14.29;41.07
27685;BME280;46113;50.130;8.526;2023-03-18T13:21:03;98673.53;;;14.06;42.28
27685;BME280;46113;50.130;8.526;2023-03-18T13:26:46;98662.56;;;13.88;42.81
27685;BME280;46113;50.130;8.526;2023-03-18T13:38:47;98652.56;;;13.57;42.59
27685;BME280;46113;50.130;8.526;2023-03-18T13:43:39;98644.81;;;12.85;43.73
27685;BME280;46113;50.130;8.526;2023-03-18T13:46:20;98654.03;;;13.38;42.90
27685;BME280;46113;50.130;8.526;2023-03-18T13:48:57;98651.09;;;13.64;43.11
27685;BME280;46113;50.130;8.526;2023-03-18T13:53:57;98644.88;;;13.08;45.37
27685;BME280;46113;50.130;8.526;2023-03-18T13:56:46;98646.56;;;13.21;45.71
27685;BME280;46113;50.130;8.526;2023-03-18T14:04:50;98641.84;;;13.59;44.89
27685;BME280;46113;50.130;8.526;2023-03-18T14:07:19;98644.56;;;13.69;45.56
27685;BME280;46113;50.130;8.526;2023-03-18T14:12:44;98641.38;;;13.98;42.47
27685;BME280;46113;50.130;8.526;2023-03-18T14:22:41;98636.72;;;14.23;41.26
27685;BME280;46113;50.130;8.526;2023-03-18T14:27:45;98633.09;;;14.66;41.25
27685;BME280;46113;50.130;8.526;2023-03-18T14:35:52;98620.53;;;14.14;45.70
27685;BME280;46113;50.130;8.526;2023-03-18T14:38:39;98620.75;;;14.23;41.98
27685;BME280;46113;50.130;8.526;2023-03-18T14:41:26;98625.06;;;13.91;42.07
27685;BME280;46113;50.130;8.526;2023-03-18T14:44:06;98621.22;;;13.84;43.35
27685;BME280;46113;50.130;8.526;2023-03-18T14:46:40;98622.75;;;13.54;43.50
27685;BME280;46113;50.130;8.526;2023-03-18T14:49:42;98618.44;;;13.30;44.42
27685;BME280;46113;50.130;8.526;2023-03-18T14:52:37;98617.38;;;13.88;44.59
27685;BME280;46113;50.130;8.526;2023-03-18T14:55:12;98612.75;;;13.23;44.74
27685;BME280;46113;50.130;8.526;2023-03-18T14:57:43;98604.91;;;13.21;44.39
27685;BME280;46113;50.130;8.526;2023-03-18T15:00:14;98605.78;;;13.10;44.46
27685;BME280;46113;50.130;8.526;2023-03-18T15:02:43;98596.06;;;13.55;44.06
27685;BME280;46113;50.130;8.526;2023-03-18T15:05:17;98600.78;;;13.40;46.32
27685;BME280;46113;50.130;8.526;2023-03-18T15:07:49;98600.22;;;13.25;44.12
27685;BME280;46113;50.130;8.526;2023-03-18T15:10:30;98596.00;;;13.78;44.97
27685;BME280;46113;50.130;8.526;2023-03-18T15:13:13;98595.41;;;13.74;45.73
27685;BME280;46113;50.130;8.526;2023-03-18T15:15:40;98600.88;;;13.61;44.24
27685;BME280;46113;50.130;8.526;2023-03-18T15:20:49;98600.72;;;13.74;46.74